sensor_id;sensor_type;location;lat;lon;timestamp;pressure;altitude;pressure_sealevel;temperature;humidity
40692;BME280;26377;53.344;14.886;2022-07-01T00:01:54;101068.02;;;18.74;72.93
40692;BME280;26377;53.344;14.886;2022-07-01T00:04:22;101065.09;;;18.71;72.91
40692;BME280;26377;53.344;14.886;2022-07-01T00:06:54;101071.41;;;18.70;72.89
40692;BME280;26377;53.344;14.886;2022-07-01T00:09:22;101068.48;;;18.68;72.92
40692;BME280;26377;53.344;14.886;2022-07-01T00:11:49;101062.12;;;18.69;72.97
40692;BME280;26377;53.344;14.886;2022-07-01T00:14:16;101052.98;;;18.66;72.90
40692;BME280;26377;53.344;14.886;2022-07-01T00:16:45;101048.20;;;18.64;72.92
40692;BME280;26377;53.344;14.886;2022-07-01T00:19:12;101047.97;;;18.61;72.89
40692;BME280;26377;53.344;14.886;2022-07-01T00:21:40;101043.22;;;18.59;72.82
40692;BME280;26377;53.344;14.886;2022-07-01T00:24:08;101042.62;;;18.56;72.82
40692;BME280;26377;53.344;14.886;2022-07-01T00:26:35;101038.70;;;18.54;72.88
40692;BME280;26377;53.344;14.886;2022-07-01T00:29:04;101040.91;;;18.49;72.79
40692;BME280;26377;53.344;14.886;2022-07-01T00:31:32;101043.36;;;18.47;72.78
40692;BME280;26377;53.344;14.886;2022-07-01T00:33:59;101045.67;;;18.40;72.64
40692;BME280;26377;53.344;14.886;2022-07-01T00:36:27;101042.81;;;18.31;72.61
40692;BME280;26377;53.344;14.886;2022-07-01T00:38:54;101033.19;;;18.23;72.72
40692;BME280;26377;53.344;14.886;2022-07-01T00:41:22;101036.70;;;18.18;72.82
40692;BME280;26377;53.344;14.886;2022-07-01T00:43:50;101035.87;;;18.17;72.97
40692;BME280;26377;53.344;14.886;2022-07-01T00:46:17;101034.88;;;18.18;73.04
40692;BME280;26377;53.344;14.886;2022-07-01T00:48:45;101039.78;;;18.19;73.07
40692;BME280;26377;53.344;14.886;2022-07-01T00:51:12;101032.55;;;18.19;73.13
40692;BME280;26377;53.344;14.886;2022-07-01T00:53:42;101028.41;;;18.21;73.13
40692;BME280;26377;53.344;14.886;2022-07-01T00:56:09;101030.63;;;18.21;73.14
40692;BME280;26377;53.344;14.886;2022-07-01T00:58:37;101032.44;;;18.21;73.19
40692;BME280;26377;53.344;14.886;2022-07-01T01:01:05;101028.30;;;18.22;73.22
40692;BME280;26377;53.344;14.886;2022-07-01T01:03:32;101031.09;;;18.21;73.22
40692;BME280;26377;53.344;14.886;2022-07-01T01:05:59;101040.86;;;18.22;73.26
40692;BME280;26377;53.344;14.886;2022-07-01T01:08:27;101038.29;;;18.20;73.27
40692;BME280;26377;53.344;14.886;2022-07-01T01:10:55;101036.95;;;18.20;73.30
40692;BME280;26377;53.344;14.886;2022-07-01T01:13:25;101036.95;;;18.20;73.32
40692;BME280;26377;53.344;14.886;2022-07-01T01:15:52;101034.77;;;18.20;73.38
40692;BME280;26377;53.344;14.886;2022-07-01T01:18:19;101032.08;;;18.20;73.39
40692;BME280;26377;53.344;14.886;2022-07-01T01:20:47;101025.84;;;18.19;73.39
40692;BME280;26377;53.344;14.886;2022-07-01T01:23:15;101023.42;;;18.16;73.37
40692;BME280;26377;53.344;14.886;2022-07-01T01:25:42;101031.34;;;18.12;73.38
40692;BME280;26377;53.344;14.886;2022-07-01T01:28:11;101029.25;;;18.10;73.42
40692;BME280;26377;53.344;14.886;2022-07-01T01:30:40;101031.70;;;18.08;73.41
40692;BME280;26377;53.344;14.886;2022-07-01T01:33:09;101031.45;;;18.05;73.41
40692;BME280;26377;53.344;14.886;2022-07-01T01:35:38;101025.36;;;18.03;73.44
40692;BME280;26377;53.344;14.886;2022-07-01T01:38:08;101025.59;;;18.00;73.45
40692;BME280;26377;53.344;14.886;2022-07-01T01:40:35;101029.50;;;17.91;73.25
40692;BME280;26377;53.344;14.886;2022-07-01T01:43:02;101036.30;;;17.84;73.31
40692;BME280;26377;53.344;14.886;2022-07-01T01:45:30;101038.02;;;17.79;73.44
40692;BME280;26377;53.344;14.886;2022-07-01T01:47:59;101044.84;;;17.78;73.45
40692;BME280;26377;53.344;14.886;2022-07-01T01:50:26;101040.31;;;17.73;73.46
40692;BME280;26377;53.344;14.886;2022-07-01T01:52:53;101042.23;;;17.71;73.53
40692;BME280;26377;53.344;14.886;2022-07-01T01:55:21;101045.28;;;17.72;73.52
40692;BME280;26377;53.344;14.886;2022-07-01T01:57:50;101039.05;;;17.66;73.49
40692;BME280;26377;53.344;14.886;2022-07-01T02:00:18;101040.15;;;17.63;73.56
40692;BME280;26377;53.344;14.886;2022-07-01T02:02:46;101053.56;;;17.63;73.69
40692;BME280;26377;53.344;14.886;2022-07-01T02:05:14;101054.32;;;17.65;73.76
40692;BME280;26377;53.344;14.886;2022-07-01T02:07:42;101053.45;;;17.65;73.76
40692;BME280;26377;53.344;14.886;2022-07-01T02:10:10;101049.90;;;17.64;73.81
40692;BME280;26377;53.344;14.886;2022-07-01T02:12:40;101044.93;;;17.65;73.87
40692;BME280;26377;53.344;14.886;2022-07-01T02:15:09;101045.52;;;17.63;73.81
40692;BME280;26377;53.344;14.886;2022-07-01T02:17:37;101036.71;;;17.56;73.67
40692;BME280;26377;53.344;14.886;2022-07-01T02:20:08;101037.33;;;17.54;73.77
40692;BME280;26377;53.344;14.886;2022-07-01T02:22:37;101039.14;;;17.53;73.80
40692;BME280;26377;53.344;14.886;2022-07-01T02:25:06;101036.94;;;17.53;73.82
40692;BME280;26377;53.344;14.886;2022-07-01T02:27:33;101035.59;;;17.53;73.83
40692;BME280;26377;53.344;14.886;2022-07-01T02:30:01;101034.98;;;17.49;73.64
40692;BME280;26377;53.344;14.886;2022-07-01T02:32:28;101032.16;;;17.45;73.73
40692;BME280;26377;53.344;14.886;2022-07-01T02:34:55;101025.31;;;17.41;73.73
40692;BME280;26377;53.344;14.886;2022-07-01T02:37:24;101027.70;;;17.39;73.84
40692;BME280;26377;53.344;14.886;2022-07-01T02:39:51;101028.61;;;17.39;73.84
40692;BME280;26377;53.344;14.886;2022-07-01T02:42:19;101024.19;;;17.38;73.86
40692;BME280;26377;53.344;14.886;2022-07-01T02:44:49;101020.39;;;17.35;73.76
40692;BME280;26377;53.344;14.886;2022-07-01T02:47:17;101022.20;;;17.35;73.81
40692;BME280;26377;53.344;14.886;2022-07-01T02:49:44;101025.86;;;17.34;73.83
40692;BME280;26377;53.344;14.886;2022-07-01T02:52:11;101030.75;;;17.34;73.83
40692;BME280;26377;53.344;14.886;2022-07-01T02:54:40;101039.27;;;17.34;73.85
40692;BME280;26377;53.344;14.886;2022-07-01T02:57:08;101033.91;;;17.34;73.82
40692;BME280;26377;53.344;14.886;2022-07-01T02:59:36;101030.97;;;17.31;73.78
40692;BME280;26377;53.344;14.886;2022-07-01T03:02:04;101035.00;;;17.31;73.78
40692;BME280;26377;53.344;14.886;2022-07-01T03:04:33;101035.50;;;17.31;73.82
40692;BME280;26377;53.344;14.886;2022-07-01T03:07:00;101032.31;;;17.31;73.88
40692;BME280;26377;53.344;14.886;2022-07-01T03:09:27;101029.05;;;17.33;73.96
40692;BME280;26377;53.344;14.886;2022-07-01T03:11:55;101027.45;;;17.36;73.98
40692;BME280;26377;53.344;14.886;2022-07-01T03:14:24;101023.69;;;17.39;74.04
40692;BME280;26377;53.344;14.886;2022-07-01T03:16:53;101026.18;;;17.42;73.95
40692;BME280;26377;53.344;14.886;2022-07-01T03:19:20;101023.13;;;17.41;73.95
40692;BME280;26377;53.344;14.886;2022-07-01T03:21:48;101028.75;;;17.43;74.03
40692;BME280;26377;53.344;14.886;2022-07-01T03:24:16;101032.91;;;17.47;74.12
40692;BME280;26377;53.344;14.886;2022-07-01T03:26:44;101037.80;;;17.53;74.19
40692;BME280;26377;53.344;14.886;2022-07-01T03:29:11;101037.83;;;17.64;74.10
40692;BME280;26377;53.344;14.886;2022-07-01T03:31:38;101037.37;;;17.76;74.18
40692;BME280;26377;53.344;14.886;2022-07-01T03:34:05;101042.53;;;17.84;74.27
40692;BME280;26377;53.344;14.886;2022-07-01T03:36:34;101048.98;;;17.87;74.28
40692;BME280;26377;53.344;14.886;2022-07-01T03:39:04;101047.30;;;17.92;74.34
40692;BME280;26377;53.344;14.886;2022-07-01T03:41:32;101044.63;;;18.03;74.54
40692;BME280;26377;53.344;14.886;2022-07-01T03:44:00;101043.17;;;18.15;74.60
40692;BME280;26377;53.344;14.886;2022-07-01T03:46:27;101048.92;;;18.22;74.57
40692;BME280;26377;53.344;14.886;2022-07-01T03:48:56;101049.53;;;18.31;74.65
40692;BME280;26377;53.344;14.886;2022-07-01T03:51:26;101044.45;;;18.44;74.81
40692;BME280;26377;53.344;14.886;2022-07-01T03:53:53;101041.52;;;18.58;74.81
40692;BME280;26377;53.344;14.886;2022-07-01T03:56:41;101050.66;;;18.72;74.85
40692;BME280;26377;53.344;14.886;2022-07-01T03:59:08;101050.52;;;18.90;75.02
40692;BME280;26377;53.344;14.886;2022-07-01T04:01:35;101052.92;;;19.04;75.09
40692;BME280;26377;53.344;14.886;2022-07-01T04:04:04;101054.13;;;19.22;75.14
40692;BME280;26377;53.344;14.886;2022-07-01T04:06:35;101057.92;;;19.51;75.14
40692;BME280;26377;53.344;14.886;2022-07-01T04:09:03;101065.79;;;19.69;75.16
40692;BME280;26377;53.344;14.886;2022-07-01T04:11:31;101065.79;;;19.69;75.16
40692;BME280;26377;53.344;14.886;2022-07-01T04:14:00;101076.70;;;19.88;75.17
40692;BME280;26377;53.344;14.886;2022-07-01T04:16:30;101072.55;;;20.05;75.03
40692;BME280;26377;53.344;14.886;2022-07-01T04:18:58;101060.77;;;20.17;74.84
40692;BME280;26377;53.344;14.886;2022-07-01T04:21:25;101067.37;;;20.33;74.87
40692;BME280;26377;53.344;14.886;2022-07-01T04:24:11;101056.84;;;20.45;74.80
40692;BME280;26377;53.344;14.886;2022-07-01T04:26:43;101062.75;;;20.69;74.35
40692;BME280;26377;53.344;14.886;2022-07-01T04:29:11;101062.75;;;20.69;74.35
40692;BME280;26377;53.344;14.886;2022-07-01T04:31:39;101070.23;;;20.81;74.34
40692;BME280;26377;53.344;14.886;2022-07-01T04:34:09;101069.06;;;20.89;74.12
40692;BME280;26377;53.344;14.886;2022-07-01T04:36:39;101061.49;;;20.88;73.71
40692;BME280;26377;53.344;14.886;2022-07-01T04:39:07;101063.92;;;20.91;73.73
40692;BME280;26377;53.344;14.886;2022-07-01T04:41:35;101061.31;;;20.95;73.65
40692;BME280;26377;53.344;14.886;2022-07-01T04:44:20;101064.53;;;21.04;73.62
40692;BME280;26377;53.344;14.886;2022-07-01T04:46:48;101060.13;;;21.13;73.62
40692;BME280;26377;53.344;14.886;2022-07-01T04:49:15;101068.39;;;21.21;73.43
40692;BME280;26377;53.344;14.886;2022-07-01T04:51:47;101063.29;;;21.27;73.38
40692;BME280;26377;53.344;14.886;2022-07-01T04:54:14;101061.23;;;21.35;73.25
40692;BME280;26377;53.344;14.886;2022-07-01T04:56:42;101050.73;;;21.41;72.99
40692;BME280;26377;53.344;14.886;2022-07-01T04:59:12;101043.92;;;21.47;73.00
40692;BME280;26377;53.344;14.886;2022-07-01T05:01:42;101047.95;;;21.56;72.96
40692;BME280;26377;53.344;14.886;2022-07-01T05:04:12;101038.27;;;21.69;73.00
40692;BME280;26377;53.344;14.886;2022-07-01T05:06:40;101036.02;;;21.78;72.69
40692;BME280;26377;53.344;14.886;2022-07-01T05:09:08;101035.26;;;21.81;72.68
40692;BME280;26377;53.344;14.886;2022-07-01T05:11:38;101037.51;;;21.95;72.85
40692;BME280;26377;53.344;14.886;2022-07-01T05:14:06;101037.88;;;22.10;72.66
40692;BME280;26377;53.344;14.886;2022-07-01T05:16:34;101034.02;;;22.22;72.67
40692;BME280;26377;53.344;14.886;2022-07-01T05:19:03;101035.03;;;22.34;72.52
40692;BME280;26377;53.344;14.886;2022-07-01T05:21:49;101028.69;;;22.49;72.52
40692;BME280;26377;53.344;14.886;2022-07-01T05:24:31;101025.73;;;22.70;72.53
40692;BME280;26377;53.344;14.886;2022-07-01T05:27:00;101033.89;;;22.87;72.36
40692;BME280;26377;53.344;14.886;2022-07-01T05:29:29;101036.08;;;23.01;72.15
40692;BME280;26377;53.344;14.886;2022-07-01T05:31:57;101038.21;;;23.11;72.05
40692;BME280;26377;53.344;14.886;2022-07-01T05:34:24;101039.79;;;23.27;71.99
40692;BME280;26377;53.344;14.886;2022-07-01T05:36:54;101037.03;;;23.41;71.83
40692;BME280;26377;53.344;14.886;2022-07-01T05:39:21;101039.53;;;23.56;71.53
40692;BME280;26377;53.344;14.886;2022-07-01T05:41:48;101039.99;;;23.69;71.53
40692;BME280;26377;53.344;14.886;2022-07-01T05:44:16;101041.50;;;23.85;71.50
40692;BME280;26377;53.344;14.886;2022-07-01T05:46:43;101042.69;;;24.04;71.58
40692;BME280;26377;53.344;14.886;2022-07-01T05:49:10;101049.28;;;24.27;71.49
40692;BME280;26377;53.344;14.886;2022-07-01T05:51:38;101046.85;;;24.49;71.56
40692;BME280;26377;53.344;14.886;2022-07-01T05:54:06;101043.45;;;24.73;71.53
40692;BME280;26377;53.344;14.886;2022-07-01T05:56:33;101048.47;;;24.97;71.26
40692;BME280;26377;53.344;14.886;2022-07-01T05:59:00;101039.68;;;25.19;71.15
40692;BME280;26377;53.344;14.886;2022-07-01T06:01:28;101034.50;;;25.38;71.07
40692;BME280;26377;53.344;14.886;2022-07-01T06:03:57;101031.80;;;25.58;70.83
40692;BME280;26377;53.344;14.886;2022-07-01T06:06:26;101025.84;;;25.74;70.56
40692;BME280;26377;53.344;14.886;2022-07-01T06:08:55;101021.78;;;25.86;70.15
40692;BME280;26377;53.344;14.886;2022-07-01T06:11:25;101020.42;;;25.90;69.78
40692;BME280;26377;53.344;14.886;2022-07-01T06:13:52;101023.34;;;25.97;69.56
40692;BME280;26377;53.344;14.886;2022-07-01T06:16:20;101016.34;;;26.06;69.22
40692;BME280;26377;53.344;14.886;2022-07-01T06:18:49;101009.70;;;26.17;69.33
40692;BME280;26377;53.344;14.886;2022-07-01T06:21:16;101011.36;;;26.34;69.15
40692;BME280;26377;53.344;14.886;2022-07-01T06:23:45;101009.13;;;26.37;68.79
40692;BME280;26377;53.344;14.886;2022-07-01T06:26:12;101006.55;;;26.48;68.75
40692;BME280;26377;53.344;14.886;2022-07-01T06:28:41;101008.06;;;26.54;68.37
40692;BME280;26377;53.344;14.886;2022-07-01T06:31:08;101009.36;;;26.74;68.66
40692;BME280;26377;53.344;14.886;2022-07-01T06:33:35;101009.98;;;26.84;68.08
40692;BME280;26377;53.344;14.886;2022-07-01T06:36:03;101011.79;;;26.96;68.08
40692;BME280;26377;53.344;14.886;2022-07-01T06:38:30;101014.23;;;27.13;67.83
40692;BME280;26377;53.344;14.886;2022-07-01T06:40:57;101013.85;;;27.28;67.84
40692;BME280;26377;53.344;14.886;2022-07-01T06:43:43;101007.03;;;27.51;67.88
40692;BME280;26377;53.344;14.886;2022-07-01T06:46:12;101016.51;;;27.77;67.74
40692;BME280;26377;53.344;14.886;2022-07-01T06:48:39;101019.20;;;28.04;67.72
40692;BME280;26377;53.344;14.886;2022-07-01T06:51:07;101015.76;;;28.24;67.34
40692;BME280;26377;53.344;14.886;2022-07-01T06:53:35;101016.23;;;28.42;66.97
40692;BME280;26377;53.344;14.886;2022-07-01T06:56:04;101012.50;;;28.43;66.33
40692;BME280;26377;53.344;14.886;2022-07-01T06:58:33;101006.13;;;28.28;65.94
40692;BME280;26377;53.344;14.886;2022-07-01T07:01:00;101009.73;;;28.10;65.56
40692;BME280;26377;53.344;14.886;2022-07-01T07:03:28;101005.36;;;27.91;65.39
40692;BME280;26377;53.344;14.886;2022-07-01T07:05:55;101012.09;;;27.80;65.21
40692;BME280;26377;53.344;14.886;2022-07-01T07:08:22;101015.63;;;27.62;65.08
40692;BME280;26377;53.344;14.886;2022-07-01T07:10:50;101016.69;;;27.57;65.15
40692;BME280;26377;53.344;14.886;2022-07-01T07:13:17;101019.97;;;27.53;65.11
40692;BME280;26377;53.344;14.886;2022-07-01T07:15:48;101014.58;;;27.45;65.00
40692;BME280;26377;53.344;14.886;2022-07-01T07:18:16;101018.87;;;27.39;64.97
40692;BME280;26377;53.344;14.886;2022-07-01T07:20:43;101014.16;;;27.33;64.91
40692;BME280;26377;53.344;14.886;2022-07-01T07:23:10;101012.64;;;27.31;64.91
40692;BME280;26377;53.344;14.886;2022-07-01T07:25:40;101013.31;;;27.29;64.93
40692;BME280;26377;53.344;14.886;2022-07-01T07:28:09;101017.25;;;27.26;64.85
40692;BME280;26377;53.344;14.886;2022-07-01T07:30:36;101019.17;;;27.22;64.82
40692;BME280;26377;53.344;14.886;2022-07-01T07:33:06;101018.69;;;27.18;64.83
40692;BME280;26377;53.344;14.886;2022-07-01T07:35:33;101030.94;;;27.14;64.79
40692;BME280;26377;53.344;14.886;2022-07-01T07:38:01;101036.91;;;27.10;64.77
40692;BME280;26377;53.344;14.886;2022-07-01T07:40:31;101036.42;;;27.06;64.76
40692;BME280;26377;53.344;14.886;2022-07-01T07:42:59;101036.94;;;27.02;64.70
40692;BME280;26377;53.344;14.886;2022-07-01T07:45:26;101031.56;;;26.94;64.61
40692;BME280;26377;53.344;14.886;2022-07-01T07:47:54;101026.47;;;26.87;64.67
40692;BME280;26377;53.344;14.886;2022-07-01T07:50:22;101026.70;;;26.81;64.68
40692;BME280;26377;53.344;14.886;2022-07-01T07:52:53;101017.18;;;26.77;64.73
40692;BME280;26377;53.344;14.886;2022-07-01T07:55:24;101011.92;;;26.72;64.73
40692;BME280;26377;53.344;14.886;2022-07-01T07:57:54;101008.91;;;26.59;64.58
40692;BME280;26377;53.344;14.886;2022-07-01T08:00:24;101003.98;;;26.54;64.74
40692;BME280;26377;53.344;14.886;2022-07-01T08:02:54;101013.36;;;26.48;64.74
40692;BME280;26377;53.344;14.886;2022-07-01T08:05:21;101009.45;;;26.42;64.81
40692;BME280;26377;53.344;14.886;2022-07-01T08:07:49;101012.55;;;26.35;64.81
40692;BME280;26377;53.344;14.886;2022-07-01T08:10:17;101008.48;;;26.27;64.82
40692;BME280;26377;53.344;14.886;2022-07-01T08:12:48;101007.83;;;26.21;65.00
40692;BME280;26377;53.344;14.886;2022-07-01T08:15:15;101014.97;;;26.14;65.09
40692;BME280;26377;53.344;14.886;2022-07-01T08:17:42;101013.61;;;26.10;65.22
40692;BME280;26377;53.344;14.886;2022-07-01T08:20:10;101016.67;;;26.07;65.33
40692;BME280;26377;53.344;14.886;2022-07-01T08:22:37;101016.34;;;26.02;65.45
40692;BME280;26377;53.344;14.886;2022-07-01T08:25:05;101017.86;;;26.05;65.59
40692;BME280;26377;53.344;14.886;2022-07-01T08:27:33;101017.03;;;26.12;65.73
40692;BME280;26377;53.344;14.886;2022-07-01T08:30:01;101014.62;;;26.21;65.85
40692;BME280;26377;53.344;14.886;2022-07-01T08:32:28;101010.84;;;26.30;65.80
40692;BME280;26377;53.344;14.886;2022-07-01T08:34:57;100998.59;;;26.34;65.71
40692;BME280;26377;53.344;14.886;2022-07-01T08:37:25;100999.93;;;26.42;65.82
40692;BME280;26377;53.344;14.886;2022-07-01T08:39:52;101004.48;;;26.50;65.71
40692;BME280;26377;53.344;14.886;2022-07-01T08:42:19;100998.02;;;26.59;65.80
40692;BME280;26377;53.344;14.886;2022-07-01T08:44:49;101005.45;;;26.73;65.63
40692;BME280;26377;53.344;14.886;2022-07-01T08:47:16;101006.44;;;26.84;65.64
40692;BME280;26377;53.344;14.886;2022-07-01T08:49:44;101008.76;;;26.91;65.33
40692;BME280;26377;53.344;14.886;2022-07-01T08:52:11;101017.88;;;27.02;65.16
40692;BME280;26377;53.344;14.886;2022-07-01T08:54:39;101009.32;;;27.13;65.01
40692;BME280;26377;53.344;14.886;2022-07-01T08:57:07;101010.11;;;27.25;65.01
40692;BME280;26377;53.344;14.886;2022-07-01T08:59:37;101002.14;;;27.46;64.86
40692;BME280;26377;53.344;14.886;2022-07-01T09:02:06;101000.39;;;27.72;64.89
40692;BME280;26377;53.344;14.886;2022-07-01T09:04:34;100989.49;;;28.09;64.63
40692;BME280;26377;53.344;14.886;2022-07-01T09:07:06;100984.30;;;28.28;64.03
40692;BME280;26377;53.344;14.886;2022-07-01T09:09:37;100991.27;;;28.49;63.99
40692;BME280;26377;53.344;14.886;2022-07-01T09:12:07;100988.30;;;28.80;63.84
40692;BME280;26377;53.344;14.886;2022-07-01T09:14:36;100991.50;;;28.98;63.07
40692;BME280;26377;53.344;14.886;2022-07-01T09:17:07;100989.64;;;29.19;63.29
40692;BME280;26377;53.344;14.886;2022-07-01T09:19:36;100987.81;;;29.37;62.87
40692;BME280;26377;53.344;14.886;2022-07-01T09:22:05;100986.30;;;29.59;62.71
40692;BME280;26377;53.344;14.886;2022-07-01T09:24:34;100977.78;;;29.86;62.46
40692;BME280;26377;53.344;14.886;2022-07-01T09:27:08;100983.48;;;30.01;62.01
40692;BME280;26377;53.344;14.886;2022-07-01T09:29:46;100983.93;;;30.16;61.68
40692;BME280;26377;53.344;14.886;2022-07-01T09:32:17;100981.52;;;30.34;61.16
40692;BME280;26377;53.344;14.886;2022-07-01T09:34:49;100977.73;;;30.35;60.86
40692;BME280;26377;53.344;14.886;2022-07-01T09:37:19;100967.28;;;30.51;60.69
40692;BME280;26377;53.344;14.886;2022-07-01T09:39:49;100969.66;;;30.61;60.32
40692;BME280;26377;53.344;14.886;2022-07-01T09:42:21;100968.59;;;30.72;60.09
40692;BME280;26377;53.344;14.886;2022-07-01T09:44:57;100972.27;;;30.75;59.64
40692;BME280;26377;53.344;14.886;2022-07-01T09:47:30;100970.92;;;30.82;59.42
40692;BME280;26377;53.344;14.886;2022-07-01T09:50:00;100978.14;;;30.96;59.36
40692;BME280;26377;53.344;14.886;2022-07-01T09:52:28;100975.92;;;30.89;58.38
40692;BME280;26377;53.344;14.886;2022-07-01T09:54:56;100972.37;;;30.78;58.13
40692;BME280;26377;53.344;14.886;2022-07-01T09:57:25;100966.55;;;30.70;57.84
40692;BME280;26377;53.344;14.886;2022-07-01T09:59:52;100959.59;;;30.68;57.57
40692;BME280;26377;53.344;14.886;2022-07-01T10:02:21;100962.93;;;30.63;57.43
40692;BME280;26377;53.344;14.886;2022-07-01T10:04:56;100955.77;;;30.62;57.18
40692;BME280;26377;53.344;14.886;2022-07-01T10:13:17;100945.75;;;30.82;56.75
40692;BME280;26377;53.344;14.886;2022-07-01T10:15:48;100947.86;;;30.87;56.48
40692;BME280;26377;53.344;14.886;2022-07-01T10:18:25;100950.55;;;31.04;56.24
40692;BME280;26377;53.344;14.886;2022-07-01T10:20:53;100955.72;;;31.03;55.89
40692;BME280;26377;53.344;14.886;2022-07-01T10:23:23;100944.11;;;31.01;55.27
40692;BME280;26377;53.344;14.886;2022-07-01T10:25:54;100937.03;;;30.96;55.40
40692;BME280;26377;53.344;14.886;2022-07-01T10:28:41;100936.09;;;30.93;55.17
40692;BME280;26377;53.344;14.886;2022-07-01T10:31:11;100926.53;;;30.69;54.21
40692;BME280;26377;53.344;14.886;2022-07-01T10:33:59;100927.89;;;30.52;54.04
40692;BME280;26377;53.344;14.886;2022-07-01T10:36:29;100927.84;;;30.63;54.17
40692;BME280;26377;53.344;14.886;2022-07-01T10:44:25;100928.03;;;30.61;53.06
40692;BME280;26377;53.344;14.886;2022-07-01T10:47:01;100917.19;;;30.34;52.79
40692;BME280;26377;53.344;14.886;2022-07-01T10:52:14;100925.23;;;30.48;53.29
40692;BME280;26377;53.344;14.886;2022-07-01T10:59:52;100923.79;;;30.99;52.39
40692;BME280;26377;53.344;14.886;2022-07-01T11:02:33;100918.54;;;31.11;52.33
40692;BME280;26377;53.344;14.886;2022-07-01T11:05:11;100920.94;;;31.10;52.16
40692;BME280;26377;53.344;14.886;2022-07-01T11:07:43;100918.52;;;31.17;52.05
40692;BME280;26377;53.344;14.886;2022-07-01T11:10:15;100908.71;;;31.12;51.88
40692;BME280;26377;53.344;14.886;2022-07-01T11:12:43;100907.97;;;31.01;51.65
40692;BME280;26377;53.344;14.886;2022-07-01T11:15:13;100901.17;;;30.84;51.50
40692;BME280;26377;53.344;14.886;2022-07-01T11:17:46;100900.11;;;30.72;51.48
40692;BME280;26377;53.344;14.886;2022-07-01T11:20:16;100888.19;;;30.69;51.46
40692;BME280;26377;53.344;14.886;2022-07-01T11:22:43;100882.42;;;30.58;51.13
40692;BME280;26377;53.344;14.886;2022-07-01T11:25:12;100879.41;;;30.40;51.16
40692;BME280;26377;53.344;14.886;2022-07-01T11:27:40;100873.93;;;30.40;51.44
40692;BME280;26377;53.344;14.886;2022-07-01T11:30:13;100860.23;;;30.63;51.75
40692;BME280;26377;53.344;14.886;2022-07-01T11:32:43;100845.23;;;30.76;51.92
40692;BME280;26377;53.344;14.886;2022-07-01T11:35:15;100846.93;;;31.03;51.61
40692;BME280;26377;53.344;14.886;2022-07-01T11:38:25;100848.95;;;31.05;51.52
40692;BME280;26377;53.344;14.886;2022-07-01T11:41:21;100842.92;;;31.06;51.33
40692;BME280;26377;53.344;14.886;2022-07-01T11:43:52;100833.03;;;31.11;51.36
40692;BME280;26377;53.344;14.886;2022-07-01T11:46:19;100828.70;;;31.06;50.99
40692;BME280;26377;53.344;14.886;2022-07-01T11:48:48;100830.72;;;30.95;50.32
40692;BME280;26377;53.344;14.886;2022-07-01T11:51:22;100831.53;;;30.76;50.33
40692;BME280;26377;53.344;14.886;2022-07-01T11:53:54;100822.45;;;30.69;50.32
40692;BME280;26377;53.344;14.886;2022-07-01T11:56:35;100819.44;;;30.58;50.10
40692;BME280;26377;53.344;14.886;2022-07-01T11:59:06;100810.36;;;30.44;49.86
40692;BME280;26377;53.344;14.886;2022-07-01T12:01:36;100787.88;;;30.32;49.97
40692;BME280;26377;53.344;14.886;2022-07-01T12:04:08;100778.47;;;30.17;49.99
40692;BME280;26377;53.344;14.886;2022-07-01T12:06:36;100756.47;;;29.97;49.94
40692;BME280;26377;53.344;14.886;2022-07-01T12:09:14;100735.86;;;29.78;50.04
40692;BME280;26377;53.344;14.886;2022-07-01T12:11:45;100725.48;;;29.60;50.18
40692;BME280;26377;53.344;14.886;2022-07-01T12:14:22;100719.67;;;29.42;50.45
40692;BME280;26377;53.344;14.886;2022-07-01T12:16:53;100730.41;;;29.27;50.71
40692;BME280;26377;53.344;14.886;2022-07-01T12:19:43;100746.39;;;29.13;50.93
40692;BME280;26377;53.344;14.886;2022-07-01T12:22:13;100752.64;;;28.96;51.20
40692;BME280;26377;53.344;14.886;2022-07-01T12:24:51;100749.98;;;28.82;51.73
40692;BME280;26377;53.344;14.886;2022-07-01T12:27:23;100752.02;;;28.73;51.97
40692;BME280;26377;53.344;14.886;2022-07-01T12:29:54;100761.92;;;28.64;52.12
40692;BME280;26377;53.344;14.886;2022-07-01T12:32:24;100779.60;;;28.57;52.39
40692;BME280;26377;53.344;14.886;2022-07-01T12:34:57;100790.45;;;28.51;52.62
40692;BME280;26377;53.344;14.886;2022-07-01T12:37:34;100796.59;;;28.38;52.69
40692;BME280;26377;53.344;14.886;2022-07-01T12:40:05;100802.94;;;28.24;52.77
40692;BME280;26377;53.344;14.886;2022-07-01T12:42:45;100813.67;;;28.11;52.95
40692;BME280;26377;53.344;14.886;2022-07-01T12:45:15;100819.73;;;28.03;53.22
40692;BME280;26377;53.344;14.886;2022-07-01T12:47:46;100830.95;;;27.93;53.44
40692;BME280;26377;53.344;14.886;2022-07-01T12:53:08;100870.50;;;27.75;53.80
40692;BME280;26377;53.344;14.886;2022-07-01T12:55:41;100921.91;;;27.63;54.02
40692;BME280;26377;53.344;14.886;2022-07-01T12:58:12;100920.95;;;27.38;53.81
40692;BME280;26377;53.344;14.886;2022-07-01T13:00:45;100965.13;;;27.03;53.79
40692;BME280;26377;53.344;14.886;2022-07-01T13:03:17;100986.98;;;26.56;53.89
40692;BME280;26377;53.344;14.886;2022-07-01T13:05:50;101001.54;;;26.13;54.05
40692;BME280;26377;53.344;14.886;2022-07-01T13:08:20;100981.17;;;25.81;54.47
40692;BME280;26377;53.344;14.886;2022-07-01T13:10:48;100971.84;;;25.47;54.67
40692;BME280;26377;53.344;14.886;2022-07-01T13:13:16;100967.89;;;25.10;55.00
40692;BME280;26377;53.344;14.886;2022-07-01T13:15:44;100977.97;;;24.68;55.42